createdAt,value
2017-03-16T00:00:51.713Z,93.46
2017-03-16T00:01:51.738Z,94.13
2017-03-16T00:02:51.762Z,94.23
2017-03-16T00:03:51.789Z,94.32
2017-03-16T00:04:51.818Z,93.46
2017-03-16T00:05:51.881Z,93.46
2017-03-16T00:06:51.873Z,94.04
2017-03-16T00:07:51.899Z,94.13
2017-03-16T00:08:51.927Z,93.99
2017-03-16T00:09:51.955Z,94.04
2017-03-16T00:10:51.980Z,94.51
2017-03-16T00:11:52.013Z,94.51
2017-03-16T00:12:52.039Z,94.08
2017-03-16T00:13:52.069Z,94.46
2017-03-16T00:14:52.093Z,95.03
2017-03-16T00:15:52.124Z,95.22
2017-03-16T00:16:52.151Z,95.03
2017-03-16T00:17:52.175Z,95.22
2017-03-16T00:18:52.201Z,94.93
2017-03-16T00:19:52.230Z,95.41
2017-03-16T00:20:52.261Z,94.93
2017-03-16T00:21:52.284Z,94.93
2017-03-16T00:22:52.311Z,95.12
2017-03-16T00:23:52.341Z,95.41
2017-03-16T00:24:52.373Z,95.31
2017-03-16T00:25:52.393Z,95.12
2017-03-16T00:26:52.426Z,95.12
2017-03-16T00:27:52.447Z,95.5
2017-03-16T00:28:52.483Z,95.31
2017-03-16T00:29:52.505Z,95.6
2017-03-16T00:30:52.537Z,95.88
2017-03-16T00:31:52.558Z,94.93
2017-03-16T00:32:52.587Z,95.41
2017-03-16T00:33:52.614Z,94.93
2017-03-16T00:34:52.655Z,94.84
2017-03-16T00:35:52.665Z,95.12
2017-03-16T00:36:52.694Z,95.31
2017-03-16T00:37:52.726Z,94.84
2017-03-16T00:38:52.752Z,95.31
2017-03-16T00:39:52.777Z,94.93
2017-03-16T00:40:52.807Z,95.12
2017-03-16T00:41:52.835Z,95.12
2017-03-16T00:42:52.857Z,95.5
2017-03-16T00:43:52.883Z,95.79
2017-03-16T00:44:52.915Z,96.07
2017-03-16T00:45:52.938Z,95.79
2017-03-16T00:46:59.728Z,95.6
2017-03-16T00:47:53.005Z,95.41
2017-03-16T00:48:53.229Z,95.22
2017-03-16T00:49:53.064Z,95.31
2017-03-16T00:50:53.078Z,95.6
2017-03-16T00:51:53.101Z,95.41
2017-03-16T00:52:53.129Z,95.69
2017-03-16T00:53:53.292Z,95.5
2017-03-16T00:54:53.182Z,95.88
2017-03-16T00:55:53.212Z,95.79
2017-03-16T00:56:53.242Z,95.88
2017-03-16T00:57:53.265Z,96.17
2017-03-16T00:58:53.306Z,95.6
2017-03-16T00:59:53.320Z,95.41
2017-03-16T01:00:53.393Z,95.6
2017-03-16T01:01:53.378Z,95.6
2017-03-16T01:02:53.418Z,95.69
2017-03-16T01:03:53.434Z,95.12
2017-03-16T01:04:53.455Z,95.6
2017-03-16T01:05:53.482Z,95.69
2017-03-16T01:06:53.510Z,95.88
2017-03-16T01:07:53.540Z,95.79
2017-03-16T01:08:53.562Z,95.88
2017-03-16T01:09:53.593Z,96.45
2017-03-16T01:10:53.622Z,96.45
2017-03-16T01:11:53.660Z,96.17
2017-03-16T01:12:53.671Z,95.79
2017-03-16T01:13:53.699Z,96.07
2017-03-16T01:14:53.729Z,96.64
2017-03-16T01:15:53.758Z,96.26
2017-03-16T01:16:53.824Z,95.98
2017-03-16T01:17:53.807Z,95.79
2017-03-16T01:18:53.835Z,96.17
2017-03-16T01:19:53.860Z,96.45
2017-03-16T01:20:53.892Z,95.69
2017-03-16T01:21:53.921Z,95.98
2017-03-16T01:22:53.942Z,95.79
2017-03-16T01:23:53.970Z,95.88
2017-03-16T01:24:54.009Z,96.45
2017-03-16T01:25:54.031Z,96.73
2017-03-16T01:26:54.052Z,96.64
2017-03-16T01:27:54.080Z,96.55
2017-03-16T01:28:54.103Z,96.26
2017-03-16T01:29:54.135Z,96.17
2017-03-16T01:30:54.166Z,96.55
2017-03-16T01:31:54.187Z,96.73
2017-03-16T01:32:54.213Z,97.11
2017-03-16T01:33:54.243Z,97.21
2017-03-16T01:34:54.283Z,96.92
2017-03-16T01:35:54.295Z,97.3
2017-03-16T01:36:54.325Z,97.4
2017-03-16T01:37:54.348Z,97.59
2017-03-16T01:38:54.372Z,97.68
2017-03-16T01:39:54.402Z,97.11
2017-03-16T01:40:54.436Z,97.4
2017-03-16T01:41:54.453Z,96.92
2017-03-16T01:42:54.483Z,97.68
2017-03-16T01:43:54.678Z,97.11
2017-03-16T01:44:54.531Z,97.4
2017-03-16T01:45:54.561Z,97.59
2017-03-16T01:46:54.589Z,97.3
2017-03-16T01:47:54.800Z,97.4
2017-03-16T01:48:54.796Z,98.06
2017-03-16T01:49:54.834Z,97.3
2017-03-16T01:50:54.850Z,97.3
2017-03-16T01:51:54.898Z,97.59
2017-03-16T01:52:54.903Z,97.68
2017-03-16T01:53:54.930Z,97.59
2017-03-16T01:54:54.960Z,97.97
2017-03-16T01:55:54.982Z,97.97
2017-03-16T01:56:55.012Z,98.16
2017-03-16T01:57:55.049Z,97.87
2017-03-16T01:58:55.085Z,98.16
2017-03-16T01:59:55.096Z,98.06
2017-03-16T02:00:55.126Z,98.16
2017-03-16T02:01:55.143Z,98.06
2017-03-16T02:02:55.170Z,98.35
2017-03-16T02:03:55.199Z,98.44
2017-03-16T02:04:55.234Z,98.44
2017-03-16T02:05:55.252Z,98.16
2017-03-16T02:06:55.278Z,98.63
2017-03-16T02:07:55.304Z,98.91
2017-03-16T02:08:55.329Z,98.82
2017-03-16T02:09:55.367Z,98.44
2017-03-16T02:10:55.383Z,98.82
2017-03-16T02:11:55.413Z,98.63
2017-03-16T02:12:55.444Z,98.82
2017-03-16T02:13:55.471Z,99.1
2017-03-16T02:14:55.492Z,99.39
2017-03-16T02:15:55.521Z,99.2
2017-03-16T02:16:55.543Z,99.29
2017-03-16T02:17:55.574Z,99.67
2017-03-16T02:18:55.600Z,99.1
2017-03-16T02:19:55.751Z,99.48
2017-03-16T02:20:55.654Z,99.48
2017-03-16T02:21:55.686Z,99.58
2017-03-16T02:22:55.700Z,99.29
2017-03-16T02:23:55.734Z,98.72
2017-03-16T02:24:55.756Z,98.54
2017-03-16T02:25:55.783Z,99.67
2017-03-16T02:26:55.810Z,99.67
2017-03-16T02:27:55.843Z,99.24
2017-03-16T02:28:55.861Z,99.67
2017-03-16T02:29:55.888Z,99.62
2017-03-16T02:30:55.923Z,99.9
2017-03-16T02:31:55.949Z,99.62
2017-03-16T02:32:55.973Z,99.71
2017-03-16T02:33:56.006Z,99.99
2017-03-16T02:34:56.023Z,99.62
2017-03-16T02:35:56.215Z,99.81
2017-03-16T02:36:56.077Z,99.99
2017-03-16T02:37:56.111Z,99.99
2017-03-16T02:38:56.135Z,99.81
2017-03-16T02:39:56.159Z,99.58
2017-03-16T02:40:56.185Z,99.58
2017-03-16T02:41:56.213Z,99.67
2017-03-16T02:42:56.306Z,99.67
2017-03-16T02:43:56.262Z,99.58
2017-03-16T02:44:56.289Z,99.29
2017-03-16T02:45:56.345Z,99.2
2017-03-16T02:46:56.345Z,99.29
2017-03-16T02:47:56.371Z,99.67
2017-03-16T02:48:56.401Z,99.48
2017-03-16T02:49:56.423Z,99.39
2017-03-16T02:51:38.477Z,99.29
2017-03-16T02:52:18.835Z,98.72
2017-03-16T02:53:18.868Z,98.44
2017-03-16T02:54:19.402Z,98.82
2017-03-16T02:55:19.392Z,98.35
2017-03-16T02:56:19.962Z,97.87
2017-03-16T02:57:19.977Z,98.16
2017-03-16T02:58:19.982Z,97.3
2017-03-16T02:59:20.481Z,97.45
2017-03-16T03:00:20.509Z,97.64
2017-03-16T03:01:20.618Z,97.26
2017-03-16T03:02:20.563Z,97.26
2017-03-16T03:03:20.588Z,96.97
2017-03-16T03:04:20.616Z,96.78
2017-03-16T03:05:20.644Z,97.07
2017-03-16T03:06:21.135Z,96.78
2017-03-16T03:07:21.688Z,96.5
2017-03-16T03:08:21.704Z,96.41
2017-03-16T03:09:22.216Z,96.59
2017-03-16T03:10:22.247Z,96.12
2017-03-16T03:11:22.783Z,96.12
2017-03-16T03:12:22.804Z,96.41
2017-03-16T03:13:22.833Z,96.22
2017-03-16T03:14:23.395Z,96.78
2017-03-16T03:15:23.382Z,96.78
2017-03-16T03:16:23.910Z,96.59
2017-03-16T03:17:23.901Z,96.88
2017-03-16T03:18:24.397Z,97.26
2017-03-16T03:19:24.447Z,97.45
2017-03-16T03:20:24.440Z,97.64
2017-03-16T03:21:24.472Z,97.68
2017-03-16T03:22:24.491Z,98.06
2017-03-16T03:23:25.007Z,97.97
2017-03-16T03:24:25.039Z,98.35
2017-03-16T03:25:25.591Z,98.72
2017-03-16T03:26:25.588Z,98.72
2017-03-16T03:27:25.640Z,98.54
2017-03-16T03:28:25.642Z,99.58
2017-03-16T03:29:25.687Z,99.1
2017-03-16T03:30:25.681Z,99.67
2017-03-16T03:31:26.237Z,99.67
2017-03-16T03:32:26.743Z,99.48
2017-03-16T03:33:26.763Z,99.67
2017-03-16T03:34:26.795Z,99.67
2017-03-16T03:35:26.821Z,99.67
2017-03-16T03:36:26.873Z,99.96
2017-03-16T03:37:26.866Z,99.86
2017-03-16T03:38:26.901Z,99.86
2017-03-16T03:39:27.437Z,99.67
2017-03-16T03:40:27.951Z,99.99
2017-03-16T03:41:28.008Z,99.96
2017-03-16T03:42:28.003Z,99.99
2017-03-16T03:43:28.524Z,99.99
2017-03-16T03:44:28.556Z,99.99
2017-03-16T03:45:28.612Z,99.99
2017-03-16T03:46:28.613Z,99.99
2017-03-16T03:47:29.156Z,99.99
2017-03-16T03:48:29.148Z,99.99
2017-03-16T03:49:29.655Z,99.99
2017-03-16T03:50:29.639Z,99.99
2017-03-16T03:51:29.705Z,99.99
2017-03-16T03:52:29.703Z,99.99
2017-03-16T03:53:29.731Z,99.99
2017-03-16T03:54:29.751Z,99.99
2017-03-16T03:55:30.301Z,99.99
2017-03-16T03:56:30.789Z,99.99
2017-03-16T03:57:30.805Z,99.99
2017-03-16T03:58:31.353Z,99.99
2017-03-16T03:59:31.340Z,99.99
2017-03-16T04:00:31.401Z,99.99
2017-03-16T04:01:31.420Z,99.99
2017-03-16T04:02:31.416Z,99.99
2017-03-16T04:03:31.953Z,99.99
2017-03-16T04:04:31.947Z,99.99
2017-03-16T04:05:31.978Z,99.99
2017-03-16T04:06:32.517Z,99.99
2017-03-16T04:07:33.028Z,99.99
2017-03-16T04:08:33.533Z,99.99
2017-03-16T04:09:33.548Z,99.99
2017-03-16T04:10:34.060Z,99.99
2017-03-16T04:11:34.287Z,99.99
2017-03-16T04:12:34.149Z,99.99
2017-03-16T04:13:34.147Z,99.99
2017-03-16T04:14:34.164Z,99.99
2017-03-16T04:15:34.192Z,99.99
2017-03-16T04:16:34.226Z,99.99
2017-03-16T04:17:34.249Z,99.99
2017-03-16T04:18:34.271Z,99.99
2017-03-16T04:19:34.301Z,99.99
2017-03-16T04:20:34.357Z,99.99
2017-03-16T04:21:34.350Z,99.99
2017-03-16T04:22:34.384Z,99.99
2017-03-16T04:23:34.881Z,99.99
2017-03-16T04:24:34.909Z,99.99
2017-03-16T04:25:35.406Z,99.99
2017-03-16T04:26:35.431Z,99.99
2017-03-16T04:27:35.448Z,99.99
2017-03-16T04:28:35.981Z,99.99
2017-03-16T04:29:35.995Z,99.99
2017-03-16T04:30:35.992Z,99.99
2017-03-16T04:31:36.010Z,99.99
2017-03-16T04:32:36.037Z,99.99
2017-03-16T04:33:36.567Z,99.99
2017-03-16T04:34:36.621Z,99.99
2017-03-16T04:35:36.649Z,99.99
2017-03-16T04:36:36.646Z,99.99
2017-03-16T04:37:36.668Z,99.99
2017-03-16T04:38:37.228Z,99.99
2017-03-16T04:39:37.752Z,99.99
2017-03-16T04:40:37.782Z,99.99
2017-03-16T04:41:37.835Z,99.99
2017-03-16T04:42:37.833Z,99.99
2017-03-16T04:43:37.850Z,99.99
2017-03-16T04:44:37.878Z,99.99
2017-03-16T04:45:38.402Z,99.99
2017-03-16T04:46:38.966Z,99.99
2017-03-16T04:47:38.954Z,99.99
2017-03-16T04:48:39.499Z,99.99
2017-03-16T04:49:39.492Z,99.99
2017-03-16T04:50:39.548Z,99.99
2017-03-16T04:51:39.575Z,99.99
2017-03-16T04:52:39.567Z,99.99
2017-03-16T04:53:39.591Z,99.99
2017-03-16T04:54:39.625Z,99.99
2017-03-16T04:55:39.653Z,99.99
2017-03-16T04:56:40.177Z,99.99
2017-03-16T04:57:40.233Z,99.99
2017-03-16T04:58:40.234Z,99.99
2017-03-16T04:59:40.263Z,99.99
2017-03-16T05:00:40.281Z,99.99
2017-03-16T05:01:40.882Z,99.99
2017-03-16T05:02:40.797Z,99.99
2017-03-16T05:03:40.862Z,99.99
2017-03-16T05:04:40.855Z,99.99
2017-03-16T05:05:41.431Z,99.99
2017-03-16T05:06:41.414Z,99.99
2017-03-16T05:07:41.444Z,99.99
2017-03-16T05:08:41.467Z,99.99
2017-03-16T05:09:41.486Z,99.99
2017-03-16T05:10:41.513Z,99.99
2017-03-16T05:11:42.043Z,99.99
2017-03-16T05:12:42.055Z,99.99
2017-03-16T05:13:42.082Z,99.99
2017-03-16T05:14:42.118Z,99.99
2017-03-16T05:15:42.145Z,99.99
2017-03-16T05:16:42.652Z,99.99
2017-03-16T05:17:42.702Z,99.99
2017-03-16T05:18:42.690Z,99.99
2017-03-16T05:19:42.727Z,99.99
2017-03-16T05:20:42.755Z,99.99
2017-03-16T05:21:42.778Z,99.99
2017-03-16T05:22:43.322Z,99.99
2017-03-16T05:23:43.347Z,99.99
2017-03-16T05:24:43.335Z,99.99
2017-03-16T05:25:43.370Z,99.99
2017-03-16T05:26:43.914Z,99.99
2017-03-16T05:27:43.925Z,99.99
2017-03-16T05:28:43.960Z,99.99
2017-03-16T05:29:43.974Z,99.99
2017-03-16T05:30:44.011Z,99.99
2017-03-16T05:31:44.532Z,99.99
2017-03-16T05:32:45.070Z,99.99
2017-03-16T05:33:45.092Z,99.99
2017-03-16T05:34:45.150Z,99.99
2017-03-16T05:35:45.136Z,99.99
2017-03-16T05:36:45.164Z,99.99
2017-03-16T05:37:45.194Z,99.99
2017-03-16T05:38:45.725Z,99.99
2017-03-16T05:39:45.747Z,99.99
2017-03-16T05:40:46.255Z,99.99
2017-03-16T05:41:46.275Z,99.99
2017-03-16T05:42:46.782Z,99.99
2017-03-16T05:43:46.850Z,99.99
2017-03-16T05:44:46.834Z,99.99
2017-03-16T05:45:46.871Z,99.99
2017-03-16T05:46:47.402Z,99.99
2017-03-16T05:47:47.417Z,99.99
2017-03-16T05:48:47.446Z,99.99
2017-03-16T05:49:47.959Z,99.99
2017-03-16T05:50:47.989Z,99.99
2017-03-16T05:51:48.549Z,99.99
2017-03-16T05:52:48.531Z,99.99
2017-03-16T05:53:48.556Z,99.99
2017-03-16T05:54:48.605Z,99.99
2017-03-16T05:55:48.615Z,99.99
2017-03-16T05:56:48.646Z,99.99
2017-03-16T05:57:48.667Z,99.99
2017-03-16T05:58:49.236Z,99.99
2017-03-16T05:59:49.913Z,99.99
2017-03-16T06:00:49.937Z,99.99
2017-03-16T06:01:49.923Z,99.99
2017-03-16T06:02:49.951Z,99.99
2017-03-16T06:03:49.976Z,99.99
2017-03-16T06:04:50.020Z,99.99
2017-03-16T06:05:50.047Z,99.99
2017-03-16T06:06:50.065Z,99.99
2017-03-16T06:07:50.088Z,99.99
2017-03-16T06:08:50.131Z,99.99
2017-03-16T06:09:50.135Z,99.99
2017-03-16T06:10:50.181Z,99.99
2017-03-16T06:11:50.189Z,99.99
2017-03-16T06:12:50.735Z,99.99
2017-03-16T06:13:50.719Z,99.99
2017-03-16T06:14:50.732Z,99.99
2017-03-16T06:15:50.773Z,99.99
2017-03-16T06:16:51.317Z,99.99
2017-03-16T06:17:51.335Z,99.99
2017-03-16T06:18:51.370Z,99.99
2017-03-16T06:19:51.388Z,99.99
2017-03-16T06:20:51.451Z,99.99
2017-03-16T06:21:51.440Z,99.99
2017-03-16T06:22:51.623Z,99.99
2017-03-16T06:23:51.532Z,99.63
2017-03-16T06:24:51.521Z,99.99
2017-03-16T06:25:52.071Z,99.72
2017-03-16T06:26:52.133Z,99.72
2017-03-16T06:27:52.135Z,99.44
2017-03-16T06:28:52.153Z,99.15
2017-03-16T06:29:52.186Z,98.96
2017-03-16T06:30:52.216Z,98.77
2017-03-16T06:31:52.767Z,98.96
2017-03-16T06:32:52.799Z,98.58
2017-03-16T06:33:52.814Z,98.39
2017-03-16T06:34:52.837Z,97.92
2017-03-16T06:35:52.869Z,97.54
2017-03-16T06:36:52.933Z,97.69
2017-03-16T06:37:52.954Z,97.5
2017-03-16T06:38:52.959Z,96.83
2017-03-16T06:39:52.991Z,95.88
2017-03-16T06:40:52.996Z,95.6
2017-03-16T06:41:53.059Z,94.74
2017-03-16T06:42:53.064Z,94.03
2017-03-16T06:43:53.073Z,93.65
2017-03-16T06:44:53.144Z,92.52
2017-03-16T06:45:53.132Z,92.18
2017-03-16T06:46:53.165Z,91.99
2017-03-16T06:47:53.197Z,91.33
2017-03-16T06:48:53.215Z,90.57
2017-03-16T06:49:53.235Z,90.38
2017-03-16T06:50:53.270Z,89.72
2017-03-16T06:51:53.293Z,89.28
2017-03-16T06:52:53.332Z,89.38
2017-03-16T06:53:53.365Z,89.19
2017-03-16T06:54:53.399Z,88.81
2017-03-16T06:55:53.519Z,89.09
2017-03-16T06:56:53.435Z,89
2017-03-16T06:57:53.465Z,88.9
2017-03-16T06:58:53.491Z,88.24
2017-03-16T06:59:53.525Z,88.05
2017-03-16T07:00:53.846Z,87.57
2017-03-16T07:01:53.588Z,87.14
2017-03-16T07:02:53.652Z,86.67
2017-03-16T07:03:53.648Z,85.81
2017-03-16T07:04:53.674Z,83.86
2017-03-16T07:05:53.694Z,81.52
2017-03-16T07:06:53.766Z,80.33
2017-03-16T07:07:53.746Z,79.57
2017-03-16T07:08:53.790Z,79.09
2017-03-16T07:09:53.819Z,79.09
2017-03-16T07:10:53.844Z,78.99
2017-03-16T07:11:53.869Z,77.8
2017-03-16T07:12:53.901Z,75.93
2017-03-16T07:13:53.965Z,75.16
2017-03-16T07:14:53.950Z,74.79
2017-03-16T07:15:53.998Z,74.88
2017-03-16T07:16:54.011Z,75.64
2017-03-16T07:17:54.050Z,75.99
2017-03-16T07:18:54.084Z,76.94
2017-03-16T07:19:54.105Z,77.32
2017-03-16T07:20:54.171Z,76.65
2017-03-16T07:21:54.176Z,76.27
2017-03-16T07:22:54.207Z,76.18
2017-03-16T07:23:54.232Z,76.08
2017-03-16T07:24:54.258Z,75.26
2017-03-16T07:25:54.282Z,73.87
2017-03-16T07:26:54.359Z,71.81
2017-03-16T07:27:54.339Z,69.78
2017-03-16T07:28:54.388Z,67.05
2017-03-16T07:29:54.533Z,65.2
2017-03-16T07:30:54.441Z,62.94
2017-03-16T07:31:54.465Z,61.15
2017-03-16T07:32:54.490Z,60.32
2017-03-16T07:33:54.545Z,59.65
2017-03-16T07:34:54.687Z,58.24
2017-03-16T07:35:54.807Z,57.86
2017-03-16T07:36:54.639Z,57.57
2017-03-16T07:37:54.650Z,57.48
2017-03-16T07:38:54.688Z,57.28
2017-03-16T07:39:54.745Z,56.74
2017-03-16T07:40:54.773Z,56.48
2017-03-16T07:41:54.788Z,55.07
2017-03-16T07:42:54.903Z,54.23
2017-03-16T07:43:54.850Z,53.01
2017-03-16T07:44:54.889Z,51.98
2017-03-16T07:45:54.950Z,51.31
2017-03-16T07:46:54.948Z,50.63
2017-03-16T07:47:54.994Z,50.34
2017-03-16T07:48:55.042Z,50.46
2017-03-16T07:49:55.059Z,50.56
2017-03-16T07:50:55.095Z,50.37
2017-03-16T07:51:55.149Z,50.73
2017-03-16T07:52:55.164Z,51.54
2017-03-16T07:53:55.262Z,52.79
2017-03-16T07:54:55.268Z,52.5
2017-03-16T07:55:55.258Z,53.17
2017-03-16T07:56:55.301Z,53.53
2017-03-16T07:57:55.370Z,54.85
2017-03-16T07:58:55.572Z,56.81
2017-03-16T07:59:55.412Z,57.83
2017-03-16T08:00:55.648Z,58.95
2017-03-16T08:01:55.463Z,59.88
2017-03-16T08:02:55.724Z,61.19
2017-03-16T08:03:55.549Z,61.38
2017-03-16T08:04:55.575Z,61.57
2017-03-16T08:05:55.669Z,61.76
2017-03-16T08:06:55.653Z,62.04
2017-03-16T08:07:55.679Z,62.24
2017-03-16T08:08:55.695Z,61.95
2017-03-16T08:09:55.772Z,62.33
2017-03-16T08:10:55.775Z,62.87
2017-03-16T08:11:55.854Z,63.07
2017-03-16T08:12:55.889Z,63.45
2017-03-16T08:13:55.871Z,63.6
2017-03-16T08:14:55.946Z,64.28
2017-03-16T08:15:55.975Z,64.75
2017-03-16T08:16:55.975Z,64.75
2017-03-16T08:17:56.013Z,64.37
2017-03-16T08:18:56.088Z,63.32
2017-03-16T08:19:56.074Z,62.68
2017-03-16T08:20:56.125Z,62.71
2017-03-16T08:21:56.162Z,61.85
2017-03-16T08:22:56.189Z,60.83
2017-03-16T08:23:56.220Z,59.91
2017-03-16T08:24:56.260Z,59.52
2017-03-16T08:25:56.280Z,58.18
2017-03-16T08:26:56.349Z,57.83
2017-03-16T08:27:56.391Z,58.22
2017-03-16T08:28:56.807Z,58.22
2017-03-16T08:29:56.939Z,57.73
2017-03-16T08:30:57.078Z,58.79
2017-03-16T08:31:56.915Z,58.69
2017-03-16T08:32:56.940Z,57.45
2017-03-16T08:33:56.567Z,57.64
2017-03-16T08:34:56.606Z,57.92
2017-03-16T08:35:56.670Z,58.5
2017-03-16T08:36:56.697Z,58.5
2017-03-16T08:37:56.707Z,57.73
2017-03-16T08:38:56.736Z,57.83
2017-03-16T08:39:56.770Z,57.83
2017-03-16T08:40:56.835Z,57.76
2017-03-16T08:41:56.833Z,56.71
2017-03-16T08:42:56.871Z,55.87
2017-03-16T08:43:56.942Z,54.78
2017-03-16T08:44:56.992Z,53.3
2017-03-16T08:45:56.977Z,52.43
2017-03-16T08:46:57.045Z,52.24
2017-03-16T08:47:57.081Z,52.24
2017-03-16T08:48:57.072Z,52.6
2017-03-16T08:49:57.182Z,53.44
2017-03-16T08:50:57.150Z,54.58
2017-03-16T08:51:57.189Z,54.94
2017-03-16T08:52:57.265Z,54.94
2017-03-16T08:53:57.255Z,55.23
2017-03-16T08:54:57.323Z,55.49
2017-03-16T08:55:57.330Z,56.26
2017-03-16T08:56:57.408Z,56.45
2017-03-16T08:57:57.407Z,56.81
2017-03-16T08:58:57.435Z,57.83
2017-03-16T08:59:57.518Z,58.76
2017-03-16T09:00:57.520Z,60
2017-03-16T09:01:57.564Z,60.26
2017-03-16T09:02:57.666Z,61.57
2017-03-16T09:03:57.644Z,61.95
2017-03-16T09:04:57.690Z,62.11
2017-03-16T09:05:57.755Z,62.33
2017-03-16T09:06:57.754Z,61.95
2017-03-16T09:07:57.816Z,61.85
2017-03-16T09:08:57.860Z,61.51
2017-03-16T09:09:57.879Z,61.31
2017-03-16T09:10:57.893Z,60.48
2017-03-16T09:11:57.941Z,59.81
2017-03-16T09:12:57.964Z,59.62
2017-03-16T09:13:58.001Z,59.45
2017-03-16T09:14:58.059Z,58.69
2017-03-16T09:15:58.113Z,58.5
2017-03-16T09:16:58.115Z,57.83
2017-03-16T09:17:58.139Z,57.54
2017-03-16T09:18:58.194Z,57.16
2017-03-16T09:19:58.211Z,57.26
2017-03-16T09:20:58.314Z,57.45
2017-03-16T09:21:58.276Z,57.57
2017-03-16T09:22:58.324Z,56.74
2017-03-16T09:23:58.336Z,55.68
2017-03-16T09:24:58.381Z,55.4
2017-03-16T09:25:58.471Z,56.26
2017-03-16T09:26:58.458Z,56.99
2017-03-16T09:27:58.479Z,56.99
2017-03-16T09:28:58.579Z,56.52
2017-03-16T09:29:58.578Z,56.32
2017-03-16T09:30:58.592Z,54.75
2017-03-16T09:31:58.633Z,53.91
2017-03-16T09:32:58.709Z,53.36
2017-03-16T09:33:58.811Z,51.95
2017-03-16T09:34:58.812Z,50.37
2017-03-16T09:35:58.782Z,49.53
2017-03-16T09:36:58.836Z,47.56
2017-03-16T09:37:58.851Z,46.35
2017-03-16T09:38:58.898Z,45.82
2017-03-16T09:39:58.934Z,44.87
2017-03-16T09:40:58.961Z,43.54
2017-03-16T09:41:58.989Z,43.28
2017-03-16T09:42:59.023Z,42.7
2017-03-16T09:43:59.098Z,43.74
2017-03-16T09:44:59.116Z,43.91
2017-03-16T09:45:59.162Z,44.87
2017-03-16T09:46:59.209Z,44.76
2017-03-16T09:47:59.245Z,44.95
2017-03-16T09:48:59.290Z,45.21
2017-03-16T09:49:59.336Z,45.68
2017-03-16T09:50:59.347Z,46.14
2017-03-16T09:51:59.420Z,46.52
2017-03-16T09:52:59.418Z,47.75
2017-03-16T09:53:59.455Z,48.4
2017-03-16T09:54:59.501Z,48.88
2017-03-16T09:55:59.580Z,49.6
2017-03-16T09:56:59.571Z,50.46
2017-03-16T09:57:59.609Z,50.82
2017-03-16T09:58:59.660Z,51.31
2017-03-16T09:59:59.689Z,51.76
2017-03-16T10:00:59.729Z,52.43
2017-03-16T10:01:59.781Z,52.53
2017-03-16T10:03:06.518Z,52.43
2017-03-16T10:03:59.834Z,52.53
2017-03-16T10:04:59.880Z,52.53
2017-03-16T10:05:59.921Z,52.43
2017-03-16T10:06:59.971Z,52.53
2017-03-16T10:08:00.002Z,53.27
2017-03-16T10:09:00.026Z,53.36
2017-03-16T10:10:00.081Z,53.91
2017-03-16T10:11:00.095Z,54.49
2017-03-16T10:12:00.132Z,54.66
2017-03-16T10:13:00.179Z,54.58
2017-03-16T10:14:00.217Z,54.58
2017-03-16T10:15:00.256Z,54.04
2017-03-16T10:16:00.317Z,53.66
2017-03-16T10:17:00.369Z,53.56
2017-03-16T10:18:00.371Z,53.85
2017-03-16T10:19:00.416Z,54.68
2017-03-16T10:20:00.444Z,55.55
2017-03-16T10:21:00.474Z,56
2017-03-16T10:22:00.514Z,56.29
2017-03-16T10:23:00.548Z,56.45
2017-03-16T10:24:00.568Z,56.48
2017-03-16T10:25:00.609Z,56.19
2017-03-16T10:26:00.676Z,56
2017-03-16T10:27:00.720Z,56.38
2017-03-16T10:28:00.726Z,56.64
2017-03-16T10:29:00.912Z,57.57
2017-03-16T10:30:00.820Z,57.67
2017-03-16T10:31:00.849Z,58.53
2017-03-16T10:32:00.874Z,58.98
2017-03-16T10:33:00.905Z,59.84
2017-03-16T10:34:00.929Z,60.48
2017-03-16T10:35:01.179Z,60.77
2017-03-16T10:36:00.994Z,61.54
2017-03-16T10:37:01.045Z,61.72
2017-03-16T10:38:01.109Z,61.54
2017-03-16T10:39:01.122Z,61.15
2017-03-16T10:40:01.153Z,61.44
2017-03-16T10:41:01.180Z,61.54
2017-03-16T10:42:01.216Z,62.08
2017-03-16T10:43:01.243Z,62.37
2017-03-16T10:44:01.496Z,62.27
2017-03-16T10:45:01.322Z,62.17
2017-03-16T10:46:01.353Z,62.4
2017-03-16T10:47:01.786Z,61.91
2017-03-16T10:48:01.418Z,61.15
2017-03-16T10:49:01.442Z,61.15
2017-03-16T10:50:01.518Z,61.28
2017-03-16T10:51:01.533Z,60.89
2017-03-16T10:52:01.578Z,60.89
2017-03-16T10:53:01.799Z,61.08
2017-03-16T10:54:01.626Z,60.06
2017-03-16T10:55:01.664Z,59.94
2017-03-16T10:56:01.741Z,60.51
2017-03-16T10:57:01.731Z,60.89
2017-03-16T10:58:01.757Z,61.15
2017-03-16T10:59:01.803Z,61.63
2017-03-16T11:00:01.853Z,61.25
2017-03-16T11:01:01.907Z,61.91
2017-03-16T11:02:02.176Z,61.91
2017-03-16T11:03:01.973Z,61.34
2017-03-16T11:04:01.980Z,61.72
2017-03-16T11:05:02.006Z,61.88
2017-03-16T11:06:02.070Z,62.37
2017-03-16T11:07:02.090Z,62.46
2017-03-16T11:08:02.117Z,62.74
2017-03-16T11:09:02.151Z,62.65
2017-03-16T11:10:02.179Z,62.65
2017-03-16T11:11:02.209Z,62.74
2017-03-16T11:12:02.253Z,63.48
2017-03-16T11:13:02.292Z,63.39
2017-03-16T11:14:02.312Z,63.19
2017-03-16T11:15:02.351Z,63.57
2017-03-16T11:16:02.376Z,63.96
2017-03-16T11:17:02.412Z,63.96
2017-03-16T11:18:02.463Z,63.96
2017-03-16T11:19:02.482Z,63.86
2017-03-16T11:20:02.526Z,63.39
2017-03-16T11:21:02.583Z,63.23
2017-03-16T11:22:02.606Z,63.42
2017-03-16T11:23:02.622Z,63.51
2017-03-16T11:24:02.663Z,63.51
2017-03-16T11:25:02.703Z,63.51
2017-03-16T11:26:02.716Z,63.23
2017-03-16T11:27:02.961Z,62.27
2017-03-16T11:28:02.795Z,62.84
2017-03-16T11:29:02.829Z,62.87
2017-03-16T11:30:02.868Z,62.87
2017-03-16T11:31:02.907Z,62.4
2017-03-16T11:32:02.939Z,61.54
2017-03-16T11:33:03.013Z,60.99
2017-03-16T11:34:03.008Z,60.8
2017-03-16T11:35:03.112Z,60.8
2017-03-16T11:36:03.131Z,60.89
2017-03-16T11:37:03.265Z,60.25
2017-03-16T11:38:03.133Z,60.16
2017-03-16T11:39:03.190Z,60.64
2017-03-16T11:40:03.224Z,60.64
2017-03-16T11:41:03.243Z,60.83
2017-03-16T11:42:03.316Z,60.83
2017-03-16T11:43:03.306Z,60.64
2017-03-16T11:44:03.393Z,59.97
2017-03-16T11:45:03.370Z,59.8
2017-03-16T11:46:03.422Z,59.8
2017-03-16T11:47:03.443Z,58.75
2017-03-16T11:48:03.506Z,58.49
2017-03-16T11:49:03.511Z,57.75
2017-03-16T11:50:03.553Z,56.82
2017-03-16T11:51:03.643Z,56.05
2017-03-16T11:52:03.612Z,55.29
2017-03-16T11:53:03.638Z,55.6
2017-03-16T11:54:03.701Z,54.83
2017-03-16T11:55:03.743Z,54.45
2017-03-16T11:56:03.763Z,54.64
2017-03-16T11:57:03.805Z,54.55
2017-03-16T11:58:03.811Z,54.93
2017-03-16T11:59:04.126Z,55.57
2017-03-16T12:00:03.923Z,56.15
2017-03-16T12:01:03.935Z,56.73
2017-03-16T12:02:03.979Z,56.53
2017-03-16T12:03:04.071Z,56.34
2017-03-16T12:04:04.033Z,55.86
2017-03-16T12:05:04.074Z,56.05
2017-03-16T12:06:04.130Z,56.05
2017-03-16T12:07:04.143Z,56.34
2017-03-16T12:08:04.220Z,56.79
2017-03-16T12:09:04.200Z,57.08
2017-03-16T12:10:04.469Z,57.28
2017-03-16T12:11:04.273Z,57.53
2017-03-16T12:12:04.305Z,58.69
2017-03-16T12:13:04.347Z,58.75
2017-03-16T12:14:04.393Z,59.42
2017-03-16T12:15:04.535Z,59.87
2017-03-16T12:16:04.450Z,60.44
2017-03-16T12:17:04.527Z,61.02
2017-03-16T12:18:04.545Z,60.93
2017-03-16T12:19:04.781Z,61.02
2017-03-16T12:20:04.637Z,61.5
2017-03-16T12:21:04.620Z,61.21
2017-03-16T12:22:04.674Z,61.21
2017-03-16T12:23:04.706Z,61.57
2017-03-16T12:24:04.722Z,61.94
2017-03-16T12:25:04.789Z,62.3
2017-03-16T12:26:04.838Z,62.4
2017-03-16T12:27:04.829Z,63.45
2017-03-16T12:28:04.886Z,63.13
2017-03-16T12:29:04.901Z,63.8
2017-03-16T12:30:05.155Z,64.43
2017-03-16T12:31:04.965Z,64.91
2017-03-16T12:32:05.051Z,64.72
2017-03-16T12:33:05.057Z,65.01
2017-03-16T12:34:05.291Z,64.91
2017-03-16T12:35:05.136Z,64.82
2017-03-16T12:36:05.148Z,64.91
2017-03-16T12:37:05.223Z,64.34
2017-03-16T12:38:05.218Z,63.99
2017-03-16T12:39:05.236Z,64.18
2017-03-16T12:40:05.275Z,64.47
2017-03-16T12:41:05.315Z,63.99
2017-03-16T12:42:05.344Z,63.89
2017-03-16T12:43:05.423Z,63.99
2017-03-16T12:44:05.417Z,63.32
2017-03-16T12:45:05.458Z,63.42
2017-03-16T12:46:05.472Z,63.6
2017-03-16T12:47:05.533Z,63.8
2017-03-16T12:48:05.561Z,64.56
2017-03-16T12:49:05.594Z,64.09
2017-03-16T12:50:05.630Z,63.8
2017-03-16T12:51:05.668Z,63.7
2017-03-16T12:52:05.689Z,63.42
2017-03-16T12:53:05.718Z,63.6
2017-03-16T12:54:05.774Z,63.6
2017-03-16T12:55:05.800Z,63.51
2017-03-16T12:56:05.825Z,63.89
2017-03-16T12:57:05.852Z,63.6